createdAt,value
2022-08-23T00:00:57.270Z,53.14
2022-08-23T00:03:29.275Z,54.20
2022-08-23T00:05:59.595Z,54.24
2022-08-23T00:08:30.050Z,54.03
2022-08-23T00:11:00.998Z,53.68
2022-08-23T00:13:47.276Z,53.68
2022-08-23T00:16:04.052Z,55.05
2022-08-23T00:18:35.165Z,55.05
2022-08-23T00:21:05.540Z,54.59
2022-08-23T00:23:36.646Z,54.18
2022-08-23T00:26:07.095Z,54.18
2022-08-23T00:28:37.673Z,54.64
2022-08-23T00:31:08.135Z,53.20
2022-08-23T00:33:38.641Z,53.91
2022-08-23T00:36:09.276Z,53.97
2022-08-23T00:38:40.424Z,53.94
2022-08-23T00:41:11.063Z,51.68
2022-08-23T00:43:42.803Z,51.68
2022-08-23T00:46:31.496Z,52.59
2022-08-23T00:49:04.473Z,52.27
2022-08-23T00:51:52.276Z,51.12
2022-08-23T00:54:14.636Z,52.62
2022-08-23T00:56:45.219Z,52.65
2022-08-23T00:59:15.633Z,53.81
2022-08-23T01:01:46.008Z,53.16
2022-08-23T01:04:18.142Z,52.02
2022-08-23T01:07:06.331Z,52.92
2022-08-23T01:09:40.512Z,52.85
2022-08-23T01:12:13.773Z,53.19
2022-08-23T01:14:52.825Z,53.54
2022-08-23T01:17:28.912Z,52.89
2022-08-23T01:20:02.309Z,52.89
2022-08-23T01:22:51.640Z,53.24
2022-08-23T01:25:24.792Z,52.78
2022-08-23T01:27:55.368Z,52.31
2022-08-23T01:30:28.589Z,52.31
2022-08-23T01:33:02.143Z,53.75
2022-08-23T01:35:39.476Z,53.32
2022-08-23T01:38:11.832Z,53.32
2022-08-23T01:40:45.192Z,54.21
2022-08-23T01:43:17.027Z,53.77
2022-08-23T01:45:48.925Z,53.12
2022-08-23T01:48:20.790Z,53.12
2022-08-23T01:50:51.383Z,55.26
2022-08-23T01:53:22.089Z,55.26
2022-08-23T01:55:52.472Z,55.16
2022-08-23T01:58:22.917Z,54.46
2022-08-23T02:00:53.351Z,53.98
2022-08-23T02:03:24.043Z,54.83
2022-08-23T02:05:55.212Z,55.00
2022-08-23T02:08:26.273Z,55.00
2022-08-23T02:10:57.461Z,55.41
2022-08-23T02:13:27.764Z,55.83
2022-08-23T02:15:59.505Z,55.52
2022-08-23T02:18:33.776Z,54.61
2022-08-23T02:21:05.542Z,54.61
2022-08-23T02:23:36.111Z,56.58
2022-08-23T02:26:07.379Z,57.82
2022-08-23T02:28:38.056Z,56.91
2022-08-23T02:31:08.991Z,56.91
2022-08-23T02:33:42.059Z,57.13
2022-08-23T02:36:12.462Z,57.24
2022-08-23T02:38:43.117Z,57.24
2022-08-23T02:41:13.806Z,57.59
2022-08-23T02:43:45.320Z,57.19
2022-08-23T02:46:15.997Z,58.23
2022-08-23T02:48:46.497Z,58.20
2022-08-23T02:51:18.702Z,57.96
2022-08-23T02:53:49.247Z,57.96
2022-08-23T02:56:21.686Z,58.61
2022-08-23T02:58:54.230Z,58.78
2022-08-23T03:01:28.217Z,58.08
2022-08-23T03:03:59.667Z,58.08
2022-08-23T03:06:30.278Z,58.13
2022-08-23T03:09:00.855Z,58.57
2022-08-23T03:11:31.205Z,59.48
2022-08-23T03:14:02.327Z,59.48
2022-08-23T03:16:33.459Z,60.16
2022-08-23T03:19:04.143Z,59.59
2022-08-23T03:21:36.007Z,59.94
2022-08-23T03:24:10.163Z,58.25
2022-08-23T03:26:40.719Z,60.42
2022-08-23T03:29:11.153Z,59.92
2022-08-23T03:31:41.909Z,60.88
2022-08-23T03:34:12.855Z,60.88
2022-08-23T03:36:43.618Z,59.97
2022-08-23T03:39:14.417Z,59.97
2022-08-23T03:41:45.518Z,60.46
2022-08-23T03:44:16.293Z,60.34
2022-08-23T03:46:50.414Z,59.87
2022-08-23T03:49:21.162Z,59.72
2022-08-23T03:51:51.483Z,60.85
2022-08-23T03:54:29.037Z,59.04
2022-08-23T03:57:05.298Z,61.47
2022-08-23T03:59:39.046Z,61.47
2022-08-23T04:02:09.969Z,61.09
2022-08-23T04:07:10.287Z,61.37
2022-08-23T04:09:41.748Z,62.11
2022-08-23T04:12:17.850Z,61.23
2022-08-23T04:14:48.772Z,61.23
2022-08-23T04:17:22.116Z,60.82
2022-08-23T04:19:53.020Z,60.82
2022-08-23T04:22:24.967Z,61.83
2022-08-23T04:24:55.454Z,62.84
2022-08-23T04:27:26.049Z,61.78
2022-08-23T04:29:56.539Z,60.10
2022-08-23T04:32:29.387Z,60.10
2022-08-23T04:35:00.582Z,61.85
2022-08-23T04:37:32.754Z,62.36
2022-08-23T04:40:03.646Z,62.36
2022-08-23T04:42:34.266Z,61.58
2022-08-23T04:45:05.591Z,61.44
2022-08-23T04:47:36.062Z,62.75
2022-08-23T04:50:07.495Z,64.36
2022-08-23T04:52:38.560Z,60.77
2022-08-23T04:55:09.090Z,60.95
2022-08-23T04:57:40.993Z,61.96
2022-08-23T05:00:12.997Z,61.71
2022-08-23T05:02:44.312Z,61.71
2022-08-23T05:05:15.843Z,61.20
2022-08-23T05:07:46.974Z,59.61
2022-08-23T05:10:17.928Z,59.61
2022-08-23T05:12:49.291Z,61.03
2022-08-23T05:15:20.294Z,60.41
2022-08-23T05:17:51.039Z,59.66
2022-08-23T05:20:21.644Z,59.66
2022-08-23T05:22:52.607Z,57.80
2022-08-23T05:25:23.718Z,57.80
2022-08-23T05:27:58.556Z,59.10
2022-08-23T05:30:29.146Z,57.92
2022-08-23T05:33:01.375Z,59.34
2022-08-23T05:35:33.232Z,56.83
2022-08-23T05:38:03.746Z,57.61
2022-08-23T05:40:34.242Z,57.61
2022-08-23T05:43:05.383Z,53.20
2022-08-23T05:45:36.670Z,55.26
2022-08-23T05:48:09.292Z,53.35
2022-08-23T05:50:40.732Z,52.44
2022-08-23T05:53:11.216Z,52.44
2022-08-23T05:55:41.811Z,50.25
2022-08-23T05:58:12.301Z,51.48
2022-08-23T06:00:43.005Z,49.82
2022-08-23T06:03:13.757Z,47.37
2022-08-23T06:05:44.235Z,47.44
2022-08-23T06:08:14.743Z,46.80
2022-08-23T06:10:45.239Z,44.88
2022-08-23T06:13:16.342Z,44.08
2022-08-23T06:15:47.375Z,44.08
2022-08-23T06:18:17.641Z,41.90
2022-08-23T06:20:48.023Z,41.90
2022-08-23T06:23:18.461Z,42.71
2022-08-23T06:25:49.629Z,40.84
2022-08-23T06:28:20.114Z,40.84
2022-08-23T06:30:56.522Z,40.10
2022-08-23T06:33:27.027Z,40.10
2022-08-23T06:36:09.177Z,40.33
2022-08-23T06:38:40.840Z,39.32
2022-08-23T06:41:13.060Z,40.08
2022-08-23T06:43:44.029Z,40.64
2022-08-23T06:46:17.640Z,40.64
2022-08-23T06:48:50.058Z,39.57
2022-08-23T06:54:26.441Z,39.02
2022-08-23T06:56:57.300Z,37.93
2022-08-23T06:59:28.320Z,37.93
2022-08-23T07:02:04.910Z,36.64
2022-08-23T07:04:39.043Z,37.58
2022-08-23T07:07:11.898Z,37.79
2022-08-23T07:09:42.514Z,35.84
2022-08-23T07:12:13.623Z,35.84
2022-08-23T07:14:44.368Z,36.29
2022-08-23T07:17:15.892Z,36.29
2022-08-23T07:19:46.333Z,34.05
2022-08-23T07:22:16.813Z,34.05
2022-08-23T07:24:50.001Z,34.25
2022-08-23T07:27:24.865Z,34.14
2022-08-23T07:29:55.693Z,34.14
2022-08-23T07:32:26.245Z,34.08
2022-08-23T07:34:56.834Z,33.24
2022-08-23T07:37:27.261Z,32.58
2022-08-23T07:39:58.608Z,32.58
2022-08-23T07:42:29.285Z,32.69
2022-08-23T07:45:00.681Z,33.11
2022-08-23T07:47:31.598Z,33.11
2022-08-23T07:50:02.607Z,32.63
2022-08-23T07:52:33.690Z,32.88
2022-08-23T07:55:04.333Z,32.88
2022-08-23T07:57:35.303Z,32.02
2022-08-23T08:00:07.295Z,32.18
2022-08-23T08:02:38.371Z,30.95
2022-08-23T08:05:09.194Z,30.95
2022-08-23T08:07:40.050Z,30.51
2022-08-23T08:10:10.633Z,31.88
2022-08-23T08:12:41.699Z,29.30
2022-08-23T08:15:12.302Z,28.98
2022-08-23T08:17:43.788Z,29.83
2022-08-23T08:20:14.548Z,29.83
2022-08-23T08:22:48.018Z,29.51
2022-08-23T08:25:16.888Z,29.51
2022-08-23T08:27:48.076Z,29.81
2022-08-23T08:30:18.633Z,28.08
2022-08-23T08:32:49.509Z,30.77
2022-08-23T08:35:19.975Z,28.83
2022-08-23T08:37:50.394Z,29.22
2022-08-23T08:40:23.601Z,28.58
2022-08-23T08:42:56.875Z,30.10
2022-08-23T08:45:30.371Z,29.66
2022-08-23T08:48:13.731Z,27.27
2022-08-23T08:50:47.228Z,27.27
2022-08-23T08:53:23.334Z,27.75
2022-08-23T08:55:56.493Z,30.61
2022-08-23T08:58:30.236Z,29.33
2022-08-23T09:01:01.224Z,27.70
2022-08-23T09:03:35.083Z,27.70
2022-08-23T09:06:11.651Z,28.00
2022-08-23T09:08:51.847Z,26.88
2022-08-23T09:11:45.469Z,27.65
2022-08-23T09:14:24.652Z,28.29
2022-08-23T09:17:01.042Z,27.78
2022-08-23T09:19:34.873Z,28.68
2022-08-23T09:22:08.054Z,28.43
2022-08-23T09:24:39.716Z,25.72
2022-08-23T09:27:11.581Z,25.57
2022-08-23T09:29:46.874Z,24.97
2022-08-23T09:32:38.671Z,25.54
2022-08-23T09:35:16.656Z,25.54
2022-08-23T09:37:57.033Z,28.07
2022-08-23T09:40:30.519Z,28.07
2022-08-23T09:43:37.572Z,26.87
2022-08-23T09:46:08.042Z,26.68
2022-08-23T09:48:44.630Z,26.02
2022-08-23T09:54:19.226Z,28.58
2022-08-23T09:57:16.128Z,28.58
2022-08-23T09:59:49.110Z,27.87
2022-08-23T10:02:30.778Z,26.29
2022-08-23T10:05:04.874Z,26.29
2022-08-23T10:07:42.398Z,25.41
2022-08-23T10:10:38.243Z,29.05
2022-08-23T10:13:08.702Z,25.94
2022-08-23T10:15:54.284Z,26.37
2022-08-23T10:18:53.609Z,27.65
2022-08-23T10:21:44.700Z,26.12
2022-08-23T10:24:30.129Z,28.80
2022-08-23T10:27:22.116Z,26.63
2022-08-23T10:29:58.392Z,26.60
2022-08-23T10:32:40.347Z,26.60
2022-08-23T10:38:30.180Z,26.17
2022-08-23T10:41:22.537Z,27.77
2022-08-23T10:44:05.081Z,24.76
2022-08-23T10:46:38.523Z,25.92
2022-08-23T10:49:11.986Z,25.25
2022-08-23T10:51:47.951Z,25.52
2022-08-23T10:54:34.965Z,25.52
2022-08-23T10:57:06.826Z,26.62
2022-08-23T10:59:38.550Z,25.43
2022-08-23T11:02:34.857Z,23.32
2022-08-23T11:05:20.066Z,26.78
2022-08-23T11:08:11.372Z,24.15
2022-08-23T11:10:56.279Z,25.38
2022-08-23T11:13:22.310Z,25.75
2022-08-23T11:16:03.332Z,24.13
2022-08-23T11:18:48.989Z,24.13
2022-08-23T11:21:28.075Z,24.04
2022-08-23T11:24:01.464Z,24.04
2022-08-23T11:26:40.864Z,24.20
2022-08-23T11:29:34.269Z,25.11
2022-08-23T11:34:58.192Z,23.81
2022-08-23T11:37:31.865Z,23.81
2022-08-23T11:40:09.594Z,22.86
2022-08-23T11:42:51.402Z,22.90
2022-08-23T11:45:40.653Z,23.22
2022-08-23T11:48:25.825Z,24.60
2022-08-23T11:51:19.360Z,24.60
2022-08-23T11:53:55.649Z,22.88
2022-08-23T11:56:32.025Z,22.65
2022-08-23T11:59:41.762Z,25.21
2022-08-23T12:02:45.395Z,23.66
2022-08-23T12:05:19.613Z,23.66
2022-08-23T12:08:05.347Z,24.21
2022-08-23T12:10:44.831Z,23.52
2022-08-23T12:13:24.790Z,24.88
2022-08-23T12:16:16.169Z,24.88
2022-08-23T12:19:13.686Z,22.77
2022-08-23T12:21:48.896Z,23.53
2022-08-23T12:24:25.329Z,23.53
2022-08-23T12:27:05.456Z,23.33
2022-08-23T12:29:48.467Z,22.73
2022-08-23T12:32:30.896Z,23.49
2022-08-23T12:35:32.844Z,23.99
2022-08-23T12:38:17.268Z,22.60
2022-08-23T12:40:50.894Z,22.60
2022-08-23T12:46:20.704Z,23.67
2022-08-23T12:48:52.134Z,22.93
2022-08-23T12:51:22.765Z,22.93
2022-08-23T12:53:53.332Z,23.27
2022-08-23T12:56:31.437Z,23.27
2022-08-23T12:59:04.471Z,24.00
2022-08-23T13:01:38.592Z,22.43
2022-08-23T13:04:15.854Z,22.43
2022-08-23T13:06:58.793Z,23.13
2022-08-23T13:09:36.531Z,23.14
2022-08-23T13:12:09.965Z,23.48
2022-08-23T13:14:49.980Z,23.08
2022-08-23T13:17:35.751Z,23.45
2022-08-23T13:20:24.533Z,22.92
2022-08-23T13:22:59.655Z,23.68
2022-08-23T13:25:36.522Z,21.48
2022-08-23T13:28:31.164Z,21.48
2022-08-23T13:31:07.655Z,20.88
2022-08-23T13:33:40.916Z,21.80
2022-08-23T13:36:19.117Z,21.36
2022-08-23T13:38:51.548Z,22.46
2022-08-23T13:41:38.868Z,21.49
2022-08-23T13:44:08.400Z,22.18
2022-08-23T13:46:44.765Z,22.18
2022-08-23T13:49:24.614Z,22.52
2022-08-23T13:52:37.565Z,23.82
2022-08-23T13:54:37.969Z,23.47
2022-08-23T13:57:16.102Z,23.96
2022-08-23T13:59:55.330Z,24.62
2022-08-23T14:02:25.934Z,24.77
2022-08-23T14:04:56.842Z,24.24
2022-08-23T14:07:27.531Z,24.24
2022-08-23T14:09:58.089Z,25.00
2022-08-23T14:12:31.878Z,25.58
2022-08-23T14:15:03.898Z,24.62
2022-08-23T14:17:38.276Z,24.53
2022-08-23T14:22:44.871Z,23.61
2022-08-23T14:25:15.646Z,23.97
2022-08-23T14:27:48.095Z,24.02
2022-08-23T14:30:29.518Z,23.77
2022-08-23T14:33:01.377Z,23.76
2022-08-23T14:35:32.334Z,24.19
2022-08-23T14:38:04.386Z,24.77
2022-08-23T14:40:36.716Z,25.62
2022-08-23T14:43:10.166Z,26.31
2022-08-23T14:45:40.691Z,26.27
2022-08-23T14:48:11.610Z,28.03
2022-08-23T14:50:43.297Z,27.68
2022-08-23T14:53:17.126Z,29.04
2022-08-23T14:55:47.875Z,27.61
2022-08-23T14:58:18.651Z,27.61
2022-08-23T15:00:50.441Z,28.92
2022-08-23T15:03:26.760Z,28.16
2022-08-23T15:05:57.661Z,28.84
2022-08-23T15:08:31.273Z,30.13
2022-08-23T15:13:41.579Z,30.03
2022-08-23T15:16:10.003Z,30.03
2022-08-23T15:18:42.539Z,30.37
2022-08-23T15:21:14.245Z,30.37
2022-08-23T15:23:45.237Z,29.50
2022-08-23T15:26:21.615Z,30.69
2022-08-23T15:28:52.980Z,30.63
2022-08-23T15:31:23.999Z,30.73
2022-08-23T15:33:54.715Z,31.15
2022-08-23T15:36:26.743Z,31.15
2022-08-23T15:38:58.001Z,30.88
2022-08-23T15:41:30.765Z,32.04
2022-08-23T15:44:02.226Z,31.72
2022-08-23T15:46:33.244Z,31.08
2022-08-23T15:49:17.170Z,31.64
2022-08-23T15:51:49.506Z,31.64
2022-08-23T15:54:20.125Z,31.05
2022-08-23T15:56:51.629Z,32.95
2022-08-23T15:59:25.033Z,32.95
2022-08-23T16:01:55.705Z,32.79
2022-08-23T16:04:26.438Z,32.79
2022-08-23T16:07:02.291Z,33.99
2022-08-23T16:09:35.402Z,33.55
2022-08-23T16:12:09.057Z,34.08
2022-08-23T16:14:46.541Z,34.21
2022-08-23T16:17:21.863Z,34.68
2022-08-23T16:19:56.531Z,34.00
2022-08-23T16:22:30.094Z,34.77
2022-08-23T16:25:00.961Z,33.70
2022-08-23T16:27:34.454Z,33.70
2022-08-23T16:30:13.784Z,35.12
2022-08-23T16:32:46.903Z,35.37
2022-08-23T16:35:18.457Z,35.37
2022-08-23T16:37:50.677Z,36.01
2022-08-23T16:40:22.261Z,37.03
2022-08-23T16:42:53.560Z,38.06
2022-08-23T16:45:25.130Z,40.09
2022-08-23T16:47:56.829Z,39.18
2022-08-23T16:50:35.900Z,38.14
2022-08-23T16:53:07.715Z,37.18
2022-08-23T16:55:40.163Z,37.18
2022-08-23T16:58:10.846Z,37.79
2022-08-23T17:00:43.013Z,38.44
2022-08-23T17:03:13.527Z,38.32
2022-08-23T17:05:47.588Z,39.81
2022-08-23T17:08:20.358Z,39.87
2022-08-23T17:10:52.067Z,40.78
2022-08-23T17:13:22.827Z,40.78
2022-08-23T17:15:53.301Z,40.75
2022-08-23T17:18:32.803Z,40.78
2022-08-23T17:21:05.448Z,40.81
2022-08-23T17:23:37.647Z,40.81
2022-08-23T17:26:12.571Z,41.02
2022-08-23T17:28:43.170Z,41.02
2022-08-23T17:31:14.120Z,41.62
2022-08-23T17:33:44.597Z,41.63
2022-08-23T17:36:29.915Z,42.07
2022-08-23T17:39:01.288Z,42.07
2022-08-23T17:41:35.088Z,42.52
2022-08-23T17:44:06.240Z,41.94
2022-08-23T17:46:39.274Z,41.87
2022-08-23T17:49:10.563Z,41.87
2022-08-23T17:51:42.076Z,41.89
2022-08-23T17:54:12.934Z,42.56
2022-08-23T17:56:50.411Z,42.55
2022-08-23T17:59:19.706Z,42.71
2022-08-23T18:01:54.155Z,43.18
2022-08-23T18:04:26.196Z,41.31
2022-08-23T18:07:00.350Z,41.60
2022-08-23T18:09:32.932Z,41.60
2022-08-23T18:12:06.125Z,43.11
2022-08-23T18:14:47.348Z,43.11
2022-08-23T18:17:17.094Z,42.62
2022-08-23T18:19:47.877Z,42.85
2022-08-23T18:22:23.448Z,42.44
2022-08-23T18:25:02.128Z,43.23
2022-08-23T18:27:33.054Z,43.23
2022-08-23T18:30:09.482Z,43.78
2022-08-23T18:32:40.312Z,43.44
2022-08-23T18:35:14.265Z,43.44
2022-08-23T18:37:45.008Z,43.57
2022-08-23T18:40:16.199Z,44.14
2022-08-23T18:42:54.669Z,43.73
2022-08-23T18:45:26.751Z,43.33
2022-08-23T18:47:59.060Z,43.33
2022-08-23T18:50:31.226Z,44.01
2022-08-23T18:53:02.208Z,44.04
2022-08-23T18:55:41.114Z,44.04
2022-08-23T18:58:14.147Z,44.85
2022-08-23T19:00:51.673Z,44.78
2022-08-23T19:03:23.958Z,44.78
2022-08-23T19:06:02.392Z,44.73
2022-08-23T19:08:47.116Z,46.24
2022-08-23T19:11:21.613Z,46.24
2022-08-23T19:13:54.350Z,47.50
2022-08-23T19:16:27.725Z,46.38
2022-08-23T19:19:02.616Z,46.38
2022-08-23T19:21:34.918Z,45.66
2022-08-23T19:24:09.227Z,46.13
2022-08-23T19:26:41.161Z,45.80
2022-08-23T19:29:13.660Z,45.87
2022-08-23T19:31:46.227Z,45.87
2022-08-23T19:34:19.530Z,46.50
2022-08-23T19:37:01.017Z,46.34
2022-08-23T19:39:30.475Z,46.34
2022-08-23T19:42:03.531Z,47.43
2022-08-23T19:44:35.647Z,46.98
2022-08-23T19:47:07.535Z,47.21
2022-08-23T19:49:39.870Z,48.19
2022-08-23T19:52:10.569Z,47.43
2022-08-23T19:54:41.544Z,47.80
2022-08-23T19:57:13.214Z,47.80
2022-08-23T19:59:44.241Z,48.26
2022-08-23T20:02:15.475Z,47.65
2022-08-23T20:04:46.556Z,49.73
2022-08-23T20:07:18.112Z,49.42
2022-08-23T20:09:50.438Z,49.14
2022-08-23T20:12:23.776Z,48.70
2022-08-23T20:14:56.279Z,48.70
2022-08-23T20:17:28.163Z,48.69
2022-08-23T20:19:59.360Z,49.40
2022-08-23T20:22:30.406Z,49.40
2022-08-23T20:25:02.388Z,49.51
2022-08-23T20:27:34.099Z,49.99
2022-08-23T20:30:11.483Z,48.25
2022-08-23T20:32:42.402Z,48.25
2022-08-23T20:35:13.713Z,49.37
2022-08-23T20:37:45.091Z,49.02
2022-08-23T20:40:16.489Z,49.02
2022-08-23T20:42:47.435Z,49.88
2022-08-23T20:45:19.563Z,49.53
2022-08-23T20:47:50.505Z,49.37
2022-08-23T20:50:23.851Z,49.56
2022-08-23T20:52:54.485Z,49.04
2022-08-23T20:55:25.224Z,49.04
2022-08-23T20:57:55.795Z,49.54
2022-08-23T21:00:27.978Z,49.70
2022-08-23T21:02:59.076Z,47.79
2022-08-23T21:05:30.207Z,47.79
2022-08-23T21:08:01.861Z,49.21
2022-08-23T21:10:36.495Z,49.37
2022-08-23T21:13:10.681Z,49.98
2022-08-23T21:15:42.003Z,49.98
2022-08-23T21:18:12.899Z,50.63
2022-08-23T21:20:45.662Z,52.00
2022-08-23T21:23:16.235Z,51.23
2022-08-23T21:25:48.785Z,49.48
2022-08-23T21:28:23.318Z,49.48
2022-08-23T21:30:55.304Z,50.21
2022-08-23T21:33:26.016Z,51.03
2022-08-23T21:35:56.811Z,49.50
2022-08-23T21:38:27.596Z,50.54
2022-08-23T21:41:00.875Z,51.28
2022-08-23T21:43:34.543Z,50.75
2022-08-23T21:46:07.043Z,51.60
2022-08-23T21:48:38.165Z,50.21
2022-08-23T21:51:08.792Z,50.21
2022-08-23T21:53:39.358Z,51.75
2022-08-23T21:56:15.121Z,51.84
2022-08-23T21:58:46.987Z,52.04
2022-08-23T22:01:22.592Z,52.04
2022-08-23T22:03:56.811Z,51.67
2022-08-23T22:06:26.204Z,51.67
2022-08-23T22:08:57.364Z,52.16
2022-08-23T22:11:28.110Z,51.44
2022-08-23T22:13:59.583Z,51.50
2022-08-23T22:16:31.029Z,51.50
2022-08-23T22:19:02.026Z,52.24
2022-08-23T22:21:35.433Z,51.24
2022-08-23T22:24:07.062Z,51.24
2022-08-23T22:26:42.344Z,52.43
2022-08-23T22:29:13.598Z,52.25
2022-08-23T22:31:44.126Z,52.25
2022-08-23T22:34:14.955Z,52.07
2022-08-23T22:36:46.190Z,51.78
2022-08-23T22:39:17.675Z,51.78
2022-08-23T22:41:48.219Z,51.83
2022-08-23T22:44:23.286Z,51.65
2022-08-23T22:46:54.014Z,50.65
2022-08-23T22:49:26.344Z,51.78
2022-08-23T22:51:57.152Z,51.69
2022-08-23T22:54:27.471Z,51.69
2022-08-23T22:56:58.240Z,51.43
2022-08-23T22:59:32.765Z,51.43
2022-08-23T23:02:02.540Z,51.62
2022-08-23T23:04:34.515Z,52.18
2022-08-23T23:07:05.927Z,52.18
2022-08-23T23:09:38.076Z,50.45
2022-08-23T23:12:08.819Z,52.11
2022-08-23T23:14:39.364Z,52.11
2022-08-23T23:17:09.818Z,51.79
2022-08-23T23:19:40.273Z,51.83
2022-08-23T23:22:10.818Z,52.09
2022-08-23T23:24:41.999Z,51.79
2022-08-23T23:27:12.791Z,52.59
2022-08-23T23:29:44.002Z,52.22
2022-08-23T23:32:14.687Z,52.22
2022-08-23T23:34:45.265Z,52.13
2022-08-23T23:37:15.745Z,51.74
2022-08-23T23:39:46.326Z,51.92
2022-08-23T23:42:17.015Z,51.92
2022-08-23T23:44:47.468Z,52.76
2022-08-23T23:47:18.171Z,52.79
2022-08-23T23:49:48.562Z,52.79
2022-08-23T23:52:19.000Z,52.53
2022-08-23T23:54:49.547Z,53.19
2022-08-23T23:57:19.899Z,53.19
2022-08-23T23:59:50.292Z,52.92
